createdAt,value
2023-05-01T00:02:02.424Z,3.28
2023-05-01T00:04:29.114Z,3.20
2023-05-01T00:06:55.888Z,3.45
2023-05-01T00:09:22.396Z,3.30
2023-05-01T00:11:48.919Z,3.35
2023-05-01T00:14:15.644Z,3.58
2023-05-01T00:16:42.699Z,3.40
2023-05-01T00:19:09.605Z,2.88
2023-05-01T00:21:36.127Z,3.20
2023-05-01T00:24:02.707Z,3.70
2023-05-01T00:26:31.671Z,3.47
2023-05-01T00:28:58.429Z,3.38
2023-05-01T00:31:25.988Z,3.20
2023-05-01T00:33:52.788Z,2.97
2023-05-01T00:36:19.612Z,3.72
2023-05-01T00:38:46.550Z,3.25
2023-05-01T00:41:13.497Z,3.30
2023-05-01T00:43:40.396Z,3.55
2023-05-01T00:46:08.359Z,3.33
2023-05-01T00:48:35.778Z,3.00
2023-05-01T00:51:06.152Z,2.95
2023-05-01T00:53:34.038Z,3.25
2023-05-01T00:56:00.953Z,3.20
2023-05-01T00:58:27.851Z,3.43
2023-05-01T01:00:55.224Z,3.15
2023-05-01T01:03:21.845Z,3.50
2023-05-01T01:06:04.134Z,3.30
2023-05-01T01:08:38.914Z,3.13
2023-05-01T01:11:12.952Z,3.30
2023-05-01T01:13:56.131Z,3.25
2023-05-01T01:16:32.413Z,3.47
2023-05-01T01:19:31.135Z,3.35
2023-05-01T01:22:06.974Z,3.42
2023-05-01T01:24:40.736Z,3.80
2023-05-01T01:27:36.201Z,3.35
2023-05-01T01:30:31.894Z,3.63
2023-05-01T01:33:29.118Z,3.38
2023-05-01T01:35:58.211Z,3.50
2023-05-01T01:38:36.434Z,3.43
2023-05-01T01:41:21.448Z,3.15
2023-05-01T01:43:58.410Z,3.10
2023-05-01T01:46:26.235Z,4.13
2023-05-01T01:48:54.913Z,3.53
2023-05-01T01:51:22.849Z,4.07
2023-05-01T01:53:53.798Z,4.00
2023-05-01T01:56:22.921Z,4.20
2023-05-01T01:58:52.828Z,3.88
2023-05-01T02:01:21.212Z,4.13
2023-05-01T02:03:48.795Z,3.93
2023-05-01T02:06:17.738Z,3.83
2023-05-01T02:08:48.757Z,4.00
2023-05-01T02:11:17.023Z,3.90
2023-05-01T02:13:46.826Z,3.90
2023-05-01T02:16:14.905Z,4.07
2023-05-01T02:18:42.109Z,4.30
2023-05-01T02:21:11.181Z,4.63
2023-05-01T02:23:38.932Z,3.80
2023-05-01T02:26:09.790Z,4.53
2023-05-01T02:28:41.383Z,5.17
2023-05-01T02:31:07.977Z,4.50
2023-05-01T02:33:34.514Z,4.13
2023-05-01T02:36:01.106Z,3.92
2023-05-01T02:38:28.837Z,4.47
2023-05-01T02:40:58.051Z,4.83
2023-05-01T02:43:26.916Z,4.30
2023-05-01T02:45:55.140Z,4.97
2023-05-01T02:48:28.486Z,5.07
2023-05-01T02:50:57.093Z,4.35
2023-05-01T02:53:23.798Z,4.67
2023-05-01T02:55:50.833Z,4.00
2023-05-01T02:58:18.500Z,4.65
2023-05-01T03:00:45.727Z,5.45
2023-05-01T03:03:12.417Z,4.55
2023-05-01T03:05:39.906Z,4.70
2023-05-01T03:08:06.842Z,5.22
2023-05-01T03:10:34.056Z,4.43
2023-05-01T03:13:01.246Z,4.47
2023-05-01T03:15:27.904Z,4.90
2023-05-01T03:17:54.504Z,4.70
2023-05-01T03:20:21.598Z,4.32
2023-05-01T03:22:48.137Z,4.40
2023-05-01T03:25:15.487Z,4.18
2023-05-01T03:27:42.746Z,4.13
2023-05-01T03:30:13.268Z,4.47
2023-05-01T03:32:39.913Z,4.40
2023-05-01T03:35:08.045Z,4.55
2023-05-01T03:37:34.920Z,4.65
2023-05-01T03:40:01.546Z,4.93
2023-05-01T03:42:28.191Z,5.53
2023-05-01T03:44:54.849Z,4.82
2023-05-01T03:47:21.442Z,4.80
2023-05-01T03:49:48.004Z,4.90
2023-05-01T03:52:14.640Z,4.68
2023-05-01T03:54:41.295Z,4.30
2023-05-01T03:57:08.042Z,4.82
2023-05-01T03:59:35.432Z,4.60
2023-05-01T04:02:02.420Z,5.40
2023-05-01T04:04:30.076Z,4.18
2023-05-01T04:06:56.830Z,4.83
2023-05-01T04:09:23.385Z,4.78
2023-05-01T04:11:49.915Z,4.82
2023-05-01T04:14:16.419Z,4.70
2023-05-01T04:16:43.274Z,4.75
2023-05-01T04:19:10.536Z,5.40
2023-05-01T04:21:37.418Z,5.18
2023-05-01T04:24:04.136Z,4.78
2023-05-01T04:26:30.998Z,4.80
2023-05-01T04:28:57.497Z,4.38
2023-05-01T04:31:24.193Z,4.57
2023-05-01T04:33:50.742Z,5.00
2023-05-01T04:36:17.318Z,4.63
2023-05-01T04:38:44.262Z,4.45
2023-05-01T04:41:10.988Z,4.88
2023-05-01T04:43:37.560Z,5.53
2023-05-01T04:46:04.634Z,4.78
2023-05-01T04:48:31.256Z,5.35
2023-05-01T04:50:58.449Z,4.90
2023-05-01T04:53:25.373Z,4.85
2023-05-01T04:55:51.959Z,4.87
2023-05-01T04:58:18.643Z,4.68
2023-05-01T05:00:45.269Z,5.20
2023-05-01T05:03:11.877Z,4.97
2023-05-01T05:05:38.564Z,4.30
2023-05-01T05:08:06.326Z,4.97
2023-05-01T05:10:32.954Z,4.55
2023-05-01T05:12:59.676Z,4.47
2023-05-01T05:15:26.211Z,4.60
2023-05-01T05:17:53.964Z,4.70
2023-05-01T05:20:22.569Z,4.60
2023-05-01T05:22:49.088Z,5.38
2023-05-01T05:25:16.225Z,4.80
2023-05-01T05:27:42.752Z,5.22
2023-05-01T05:30:10.402Z,4.47
2023-05-01T05:32:37.776Z,4.37
2023-05-01T05:35:05.814Z,5.03
2023-05-01T05:37:32.391Z,5.28
2023-05-01T05:39:58.958Z,5.18
2023-05-01T05:42:25.544Z,4.93
2023-05-01T05:44:52.056Z,5.27
2023-05-01T05:47:18.718Z,4.53
2023-05-01T05:49:45.173Z,4.93
2023-05-01T05:52:11.679Z,5.35
2023-05-01T05:54:38.251Z,5.15
2023-05-01T05:57:04.905Z,4.63
2023-05-01T05:59:31.508Z,4.72
2023-05-01T06:01:58.632Z,4.80
2023-05-01T06:04:25.325Z,6.22
2023-05-01T06:06:52.016Z,5.85
2023-05-01T06:09:19.030Z,4.87
2023-05-01T06:11:45.994Z,4.90
2023-05-01T06:14:12.643Z,4.80
2023-05-01T06:16:39.649Z,4.80
2023-05-01T06:19:07.835Z,5.32
2023-05-01T06:21:35.996Z,5.90
2023-05-01T06:24:02.561Z,4.93
2023-05-01T06:26:29.105Z,5.28
2023-05-01T06:28:56.205Z,5.70
2023-05-01T06:31:22.962Z,5.57
2023-05-01T06:33:49.731Z,4.97
2023-05-01T06:36:16.367Z,4.72
2023-05-01T06:38:48.572Z,4.82
2023-05-01T06:41:16.359Z,5.70
2023-05-01T06:43:42.968Z,4.88
2023-05-01T06:46:09.965Z,4.50
2023-05-01T06:48:36.931Z,5.10
2023-05-01T06:51:03.556Z,5.00
2023-05-01T06:53:30.146Z,5.80
2023-05-01T06:55:56.727Z,5.03
2023-05-01T06:58:24.378Z,5.73
2023-05-01T07:00:52.733Z,5.25
2023-05-01T07:03:19.484Z,4.82
2023-05-01T07:05:46.148Z,5.13
2023-05-01T07:08:12.962Z,5.20
2023-05-01T07:10:41.931Z,4.77
2023-05-01T07:13:09.393Z,4.65
2023-05-01T07:15:36.063Z,5.38
2023-05-01T07:18:06.177Z,5.13
2023-05-01T07:20:33.316Z,5.22
2023-05-01T07:22:59.972Z,5.97
2023-05-01T07:25:26.711Z,5.82
2023-05-01T07:27:54.371Z,5.40
2023-05-01T07:30:21.252Z,6.13
2023-05-01T07:32:48.609Z,5.20
2023-05-01T07:35:15.394Z,6.27
2023-05-01T07:37:41.976Z,5.95
2023-05-01T07:40:08.756Z,6.05
2023-05-01T07:42:35.277Z,6.07
2023-05-01T07:45:02.083Z,6.28
2023-05-01T07:47:28.893Z,6.00
2023-05-01T07:49:55.929Z,6.38
2023-05-01T07:52:22.978Z,6.78
2023-05-01T07:54:51.086Z,6.28
2023-05-01T07:57:17.656Z,6.78
2023-05-01T07:59:44.367Z,6.53
2023-05-01T08:02:11.050Z,6.20
2023-05-01T08:04:37.717Z,6.43
2023-05-01T08:07:04.286Z,7.07
2023-05-01T08:09:31.180Z,6.70
2023-05-01T08:11:57.837Z,6.67
2023-05-01T08:14:24.394Z,7.80
2023-05-01T08:16:55.547Z,7.20
2023-05-01T08:19:22.226Z,7.55
2023-05-01T08:21:49.037Z,7.75
2023-05-01T08:24:15.779Z,7.17
2023-05-01T08:26:42.560Z,8.15
2023-05-01T08:29:10.121Z,8.55
2023-05-01T08:31:37.998Z,7.97
2023-05-01T08:34:04.927Z,8.10
2023-05-01T08:36:32.919Z,7.87
2023-05-01T08:38:59.472Z,8.48
2023-05-01T08:41:28.264Z,7.38
2023-05-01T08:43:57.213Z,8.32
2023-05-01T08:46:39.088Z,7.90
2023-05-01T08:49:06.550Z,7.00
2023-05-01T08:51:34.873Z,7.93
2023-05-01T08:54:03.674Z,7.13
2023-05-01T08:56:31.654Z,7.07
2023-05-01T08:58:59.518Z,7.28
2023-05-01T09:01:28.241Z,7.27
2023-05-01T09:03:56.209Z,6.15
2023-05-01T09:06:23.350Z,6.82
2023-05-01T09:08:49.911Z,6.47
2023-05-01T09:11:16.531Z,6.53
2023-05-01T09:13:43.078Z,7.00
2023-05-01T09:16:09.722Z,6.90
2023-05-01T09:18:36.759Z,6.75
2023-05-01T09:21:03.578Z,7.30
2023-05-01T09:23:30.294Z,6.55
2023-05-01T09:25:57.896Z,6.13
2023-05-01T09:28:47.962Z,6.18
2023-05-01T09:31:32.957Z,5.57
2023-05-01T09:34:02.166Z,5.55
2023-05-01T09:36:33.678Z,5.60
2023-05-01T09:39:01.889Z,5.20
2023-05-01T09:41:29.013Z,4.85
2023-05-01T09:43:59.426Z,5.28
2023-05-01T09:46:27.112Z,5.55
2023-05-01T09:49:01.740Z,5.10
2023-05-01T09:51:33.179Z,5.73
2023-05-01T09:54:01.966Z,5.70
2023-05-01T09:56:33.981Z,5.40
2023-05-01T09:59:21.005Z,5.88
2023-05-01T10:01:50.219Z,5.43
2023-05-01T10:04:17.367Z,5.87
2023-05-01T10:06:44.064Z,5.45
2023-05-01T10:09:17.767Z,5.35
2023-05-01T10:11:52.359Z,6.35
2023-05-01T10:14:20.371Z,5.82
2023-05-01T10:16:47.421Z,5.63
2023-05-01T10:19:16.849Z,5.43
2023-05-01T10:21:43.489Z,5.70
2023-05-01T10:24:11.192Z,5.85
2023-05-01T10:26:37.956Z,5.75
2023-05-01T10:29:04.820Z,5.40
2023-05-01T10:31:33.581Z,5.05
2023-05-01T10:34:03.774Z,5.88
2023-05-01T10:36:40.062Z,5.60
2023-05-01T10:39:07.188Z,5.78
2023-05-01T10:41:58.425Z,5.77
2023-05-01T10:44:27.254Z,4.75
2023-05-01T10:46:54.614Z,4.95
2023-05-01T10:49:21.646Z,5.25
2023-05-01T10:52:01.090Z,5.25
2023-05-01T10:54:33.807Z,5.90
2023-05-01T10:57:03.651Z,5.15
2023-05-01T11:00:04.103Z,5.43
2023-05-01T11:02:30.973Z,5.20
2023-05-01T11:04:57.726Z,5.10
2023-05-01T11:07:25.334Z,5.10
2023-05-01T11:10:03.106Z,5.35
2023-05-01T11:12:51.493Z,5.03
2023-05-01T11:15:30.628Z,4.90
2023-05-01T11:17:58.457Z,5.38
2023-05-01T11:20:24.914Z,5.33
2023-05-01T11:22:56.445Z,4.82
2023-05-01T11:25:28.068Z,5.25
2023-05-01T11:27:59.751Z,5.60
2023-05-01T11:30:26.310Z,4.80
2023-05-01T11:32:53.206Z,4.37
2023-05-01T11:35:20.520Z,5.63
2023-05-01T11:37:48.542Z,6.20
2023-05-01T11:40:26.237Z,5.88
2023-05-01T11:43:07.796Z,5.68
2023-05-01T11:45:36.503Z,6.03
2023-05-01T11:48:04.844Z,6.43
2023-05-01T11:50:36.578Z,6.82
2023-05-01T11:53:04.778Z,6.10
2023-05-01T11:55:32.474Z,6.60
2023-05-01T11:57:59.395Z,6.63
2023-05-01T12:00:31.007Z,6.60
2023-05-01T12:02:59.907Z,6.70
2023-05-01T12:05:28.573Z,6.78
2023-05-01T12:08:21.265Z,6.38
2023-05-01T12:10:52.850Z,8.03
2023-05-01T12:13:20.816Z,6.30
2023-05-01T12:15:49.905Z,6.45
2023-05-01T12:18:17.975Z,6.20
2023-05-01T12:20:47.849Z,5.97
2023-05-01T12:23:16.544Z,6.60
2023-05-01T12:25:44.945Z,7.47
2023-05-01T12:28:20.046Z,6.30
2023-05-01T12:30:49.370Z,7.53
2023-05-01T12:33:20.737Z,6.82
2023-05-01T12:35:49.525Z,7.70
2023-05-01T12:38:18.385Z,8.15
2023-05-01T12:40:59.981Z,8.65
2023-05-01T12:43:34.804Z,7.45
2023-05-01T12:46:03.246Z,7.90
2023-05-01T12:48:31.667Z,7.30
2023-05-01T12:51:01.025Z,8.50
2023-05-01T12:53:29.633Z,7.97
2023-05-01T12:55:59.511Z,9.07
2023-05-01T12:58:37.117Z,9.07
2023-05-01T13:01:04.320Z,9.60
2023-05-01T13:03:31.549Z,9.75
2023-05-01T13:06:03.197Z,9.15
2023-05-01T13:08:32.213Z,10.15
2023-05-01T13:11:10.269Z,11.70
2023-05-01T13:13:37.704Z,11.37
2023-05-01T13:16:25.054Z,11.27
2023-05-01T13:18:53.658Z,12.02
2023-05-01T13:21:22.384Z,10.85
2023-05-01T13:23:56.935Z,10.93
2023-05-01T13:26:28.416Z,12.37
2023-05-01T13:28:55.613Z,11.82
2023-05-01T13:31:22.227Z,12.70
2023-05-01T13:33:51.950Z,12.73
2023-05-01T13:36:26.064Z,11.75
2023-05-01T13:38:56.478Z,13.93
2023-05-01T13:41:28.035Z,14.13
2023-05-01T13:43:56.319Z,13.73
2023-05-01T13:46:25.020Z,14.10
2023-05-01T13:48:52.204Z,13.40
2023-05-01T13:51:27.225Z,15.17
2023-05-01T13:53:56.285Z,12.93
2023-05-01T13:56:22.998Z,12.02
2023-05-01T13:58:50.896Z,12.48
2023-05-01T14:01:22.476Z,11.50
2023-05-01T14:03:49.957Z,11.70
2023-05-01T14:06:19.463Z,13.68
2023-05-01T14:08:47.997Z,14.45
2023-05-01T14:11:15.475Z,12.52
2023-05-01T14:13:47.059Z,12.60
2023-05-01T14:16:25.757Z,13.27
2023-05-01T14:18:57.652Z,12.52
2023-05-01T14:21:27.388Z,11.10
2023-05-01T14:23:55.183Z,10.50
2023-05-01T14:26:24.120Z,10.48
2023-05-01T14:28:50.898Z,9.37
2023-05-01T14:31:24.217Z,11.00
2023-05-01T14:33:55.685Z,9.07
2023-05-01T14:36:22.495Z,9.65
2023-05-01T14:38:49.301Z,10.40
2023-05-01T14:41:19.685Z,10.63
2023-05-01T14:43:46.447Z,9.82
2023-05-01T14:46:14.861Z,9.40
2023-05-01T14:48:42.278Z,9.23
2023-05-01T14:51:12.791Z,8.88
2023-05-01T14:53:42.737Z,8.33
2023-05-01T14:56:09.561Z,8.77
2023-05-01T14:58:36.395Z,10.20
2023-05-01T15:01:03.062Z,9.27
2023-05-01T15:03:30.114Z,9.32
2023-05-01T15:05:57.477Z,8.00
2023-05-01T15:08:24.399Z,9.05
2023-05-01T15:10:53.962Z,7.82
2023-05-01T15:13:21.421Z,6.00
2023-05-01T15:15:48.200Z,5.25
2023-05-01T15:18:15.002Z,6.33
2023-05-01T15:20:41.618Z,5.70
2023-05-01T15:23:08.186Z,7.07
2023-05-01T15:25:34.658Z,6.30
2023-05-01T15:28:01.136Z,4.90
2023-05-01T15:30:27.837Z,4.60
2023-05-01T15:32:55.816Z,5.00
2023-05-01T15:35:23.736Z,4.95
2023-05-01T15:37:50.713Z,4.70
2023-05-01T15:40:17.347Z,5.35
2023-05-01T15:42:45.544Z,6.83
2023-05-01T15:45:12.012Z,4.53
2023-05-01T15:47:38.712Z,5.80
2023-05-01T15:50:09.616Z,4.82
2023-05-01T15:52:36.191Z,5.25
2023-05-01T15:55:02.899Z,5.30
2023-05-01T15:57:30.978Z,5.03
2023-05-01T15:59:57.758Z,3.38
2023-05-01T16:02:27.196Z,4.03
2023-05-01T16:04:54.099Z,3.15
2023-05-01T16:07:21.696Z,4.93
2023-05-01T16:09:48.190Z,5.57
2023-05-01T16:12:14.818Z,5.72
2023-05-01T16:14:42.194Z,4.75
2023-05-01T16:17:09.040Z,4.20
2023-05-01T16:19:37.017Z,4.33
2023-05-01T16:22:04.732Z,5.07
2023-05-01T16:24:35.321Z,6.72
2023-05-01T16:27:02.567Z,6.72
2023-05-01T16:29:29.054Z,7.07
2023-05-01T16:31:55.678Z,7.57
2023-05-01T16:34:25.608Z,7.25
2023-05-01T16:36:53.056Z,6.72
2023-05-01T16:39:22.033Z,6.35
2023-05-01T16:41:50.968Z,6.47
2023-05-01T16:44:19.708Z,6.73
2023-05-01T16:46:57.378Z,6.57
2023-05-01T16:49:27.109Z,6.82
2023-05-01T16:51:57.436Z,7.57
2023-05-01T16:54:25.126Z,7.43
2023-05-01T16:56:51.973Z,6.60
2023-05-01T16:59:18.653Z,6.75
2023-05-01T17:01:45.278Z,7.18
2023-05-01T17:04:13.338Z,7.45
2023-05-01T17:06:39.975Z,7.75
2023-05-01T17:09:06.593Z,8.00
2023-05-01T17:11:33.117Z,7.38
2023-05-01T17:13:59.717Z,7.22
2023-05-01T17:16:26.253Z,7.10
2023-05-01T17:18:52.965Z,6.63
2023-05-01T17:21:19.637Z,6.67
2023-05-01T17:23:46.156Z,6.78
2023-05-01T17:26:15.923Z,8.02
2023-05-01T17:28:42.464Z,8.52
2023-05-01T17:31:09.411Z,9.02
2023-05-01T17:33:36.185Z,9.23
2023-05-01T17:36:02.984Z,8.77
2023-05-01T17:38:29.505Z,8.02
2023-05-01T17:40:56.011Z,9.75
2023-05-01T17:43:22.629Z,9.27
2023-05-01T17:45:50.154Z,9.83
2023-05-01T17:48:17.200Z,8.68
2023-05-01T17:50:43.754Z,8.02
2023-05-01T17:53:10.827Z,9.15
2023-05-01T17:55:38.934Z,8.95
2023-05-01T17:58:06.987Z,8.43
2023-05-01T18:00:33.750Z,8.63
2023-05-01T18:03:00.553Z,8.38
2023-05-01T18:05:27.352Z,8.32
2023-05-01T18:07:53.870Z,9.60
2023-05-01T18:10:20.692Z,9.27
2023-05-01T18:12:49.832Z,8.43
2023-05-01T18:15:22.028Z,8.93
2023-05-01T18:17:49.609Z,8.98
2023-05-01T18:20:16.304Z,8.05
2023-05-01T18:22:43.011Z,8.50
2023-05-01T18:25:09.671Z,7.47
2023-05-01T18:27:38.183Z,8.55
2023-05-01T18:30:05.333Z,9.18
2023-05-01T18:32:46.320Z,8.10
2023-05-01T18:35:15.213Z,8.60
2023-05-01T18:37:42.550Z,8.68
2023-05-01T18:40:17.073Z,7.97
2023-05-01T18:42:43.637Z,8.55
2023-05-01T18:45:10.498Z,8.27
2023-05-01T18:47:37.143Z,8.38
2023-05-01T18:50:05.008Z,7.97
2023-05-01T18:52:31.520Z,8.07
2023-05-01T18:54:58.077Z,8.68
2023-05-01T18:57:24.557Z,8.23
2023-05-01T18:59:51.027Z,8.68
2023-05-01T19:02:17.522Z,7.60
2023-05-01T19:04:56.940Z,7.70
2023-05-01T19:07:26.274Z,7.75
2023-05-01T19:09:53.026Z,7.78
2023-05-01T19:12:19.495Z,7.32
2023-05-01T19:14:46.096Z,7.40
2023-05-01T19:17:12.625Z,7.10
2023-05-01T19:19:39.169Z,6.95
2023-05-01T19:22:06.348Z,7.55
2023-05-01T19:24:32.971Z,6.40
2023-05-01T19:26:59.485Z,6.50
2023-05-01T19:29:26.039Z,7.10
2023-05-01T19:31:52.631Z,6.32
2023-05-01T19:34:20.733Z,6.30
2023-05-01T19:36:47.221Z,7.07
2023-05-01T19:39:14.056Z,6.53
2023-05-01T19:41:40.655Z,7.03
2023-05-01T19:44:07.995Z,6.80
2023-05-01T19:46:34.506Z,6.47
2023-05-01T19:49:01.049Z,6.18
2023-05-01T19:51:28.270Z,6.43
2023-05-01T19:53:54.746Z,6.05
2023-05-01T19:56:21.259Z,6.88
2023-05-01T19:58:47.726Z,6.25
2023-05-01T20:01:14.523Z,7.50
2023-05-01T20:03:41.305Z,7.03
2023-05-01T20:06:08.014Z,7.15
2023-05-01T20:08:34.763Z,7.38
2023-05-01T20:11:01.854Z,7.15
2023-05-01T20:13:28.424Z,7.47
2023-05-01T20:15:55.345Z,8.07
2023-05-01T20:18:22.268Z,6.93
2023-05-01T20:20:48.984Z,7.05
2023-05-01T20:23:17.460Z,7.70
2023-05-01T20:25:45.426Z,7.70
2023-05-01T20:28:14.888Z,7.20
2023-05-01T20:30:43.692Z,7.72
2023-05-01T20:33:11.320Z,7.78
2023-05-01T20:35:39.548Z,7.25
2023-05-01T20:38:06.263Z,7.63
2023-05-01T20:40:33.737Z,8.07
2023-05-01T20:43:00.870Z,7.97
2023-05-01T20:45:31.541Z,7.63
2023-05-01T20:48:01.792Z,8.00
2023-05-01T20:50:28.487Z,6.63
2023-05-01T20:52:56.396Z,8.30
2023-05-01T20:55:23.978Z,7.70
2023-05-01T20:57:50.703Z,8.27
2023-05-01T21:00:17.429Z,7.60
2023-05-01T21:02:44.254Z,7.22
2023-05-01T21:05:11.283Z,7.78
2023-05-01T21:07:39.411Z,8.60
2023-05-01T21:10:10.311Z,8.07
2023-05-01T21:12:37.410Z,7.57
2023-05-01T21:15:04.498Z,8.32
2023-05-01T21:17:33.617Z,8.50
2023-05-01T21:20:00.485Z,8.93
2023-05-01T21:22:27.776Z,9.02
2023-05-01T21:24:56.493Z,9.43
2023-05-01T21:27:24.748Z,10.10
2023-05-01T21:29:56.358Z,8.77
2023-05-01T21:32:34.298Z,8.82
2023-05-01T21:35:01.470Z,9.23
2023-05-01T21:37:29.225Z,9.57
2023-05-01T21:39:59.406Z,9.52
2023-05-01T21:42:35.912Z,9.30
2023-05-01T21:45:11.059Z,9.73
2023-05-01T21:47:39.421Z,8.73
2023-05-01T21:50:07.588Z,8.88
2023-05-01T21:52:37.125Z,9.00
2023-05-01T21:55:09.267Z,9.52
2023-05-01T21:57:37.019Z,9.73
2023-05-01T22:00:05.547Z,9.65
2023-05-01T22:02:38.536Z,11.73
2023-05-01T22:05:06.374Z,9.85
2023-05-01T22:07:33.480Z,10.93
2023-05-01T22:10:01.367Z,11.70
2023-05-01T22:12:28.195Z,11.50
2023-05-01T22:14:55.112Z,11.82
2023-05-01T22:17:24.516Z,14.60
2023-05-01T22:19:51.658Z,14.18
2023-05-01T22:22:19.296Z,13.77
2023-05-01T22:24:46.261Z,12.70
2023-05-01T22:27:12.800Z,12.35
2023-05-01T22:29:39.294Z,14.57
2023-05-01T22:32:05.954Z,11.75
2023-05-01T22:34:32.559Z,14.65
2023-05-01T22:36:59.123Z,11.95
2023-05-01T22:39:25.991Z,11.77
2023-05-01T22:41:52.583Z,11.95
2023-05-01T22:44:21.636Z,12.10
2023-05-01T22:46:48.872Z,12.50
2023-05-01T22:49:15.436Z,12.35
2023-05-01T22:51:41.963Z,13.05
2023-05-01T22:54:08.458Z,13.82
2023-05-01T22:56:34.987Z,14.90
2023-05-01T22:59:01.514Z,15.07
2023-05-01T23:01:28.226Z,18.45
2023-05-01T23:03:55.735Z,17.65
2023-05-01T23:06:22.360Z,18.27
2023-05-01T23:08:53.528Z,17.92
2023-05-01T23:11:21.241Z,20.33
2023-05-01T23:13:50.157Z,20.10
2023-05-01T23:16:17.230Z,20.52
2023-05-01T23:18:44.601Z,20.00
2023-05-01T23:21:13.282Z,20.23
2023-05-01T23:23:44.633Z,21.25
2023-05-01T23:26:20.013Z,21.60
2023-05-01T23:28:46.707Z,21.63
2023-05-01T23:31:20.875Z,23.27
2023-05-01T23:33:47.375Z,22.73
2023-05-01T23:36:14.059Z,23.52
2023-05-01T23:38:40.915Z,26.00
2023-05-01T23:41:07.955Z,23.00
2023-05-01T23:43:35.066Z,24.38
2023-05-01T23:46:05.093Z,23.83
2023-05-01T23:48:33.374Z,20.40
2023-05-01T23:51:00.603Z,22.65
2023-05-01T23:53:27.173Z,20.38
2023-05-01T23:55:53.758Z,21.25
2023-05-01T23:58:20.310Z,19.08
